Time;durP1;ratioP1;P1;durP2;ratioP2;P2;SDS_P1;SDS_P2;PMS_P1;PMS_P2;Temp;Humidity;BMP_temperature;BMP_pressure;BME280_temperature;BME280_humidity;BME280_pressure;Samples;Min_cycle;Max_cycle;Signal;HPM_P1;HPM_P2
2021/05/17 00:00:48;;;;;;;5.10;4.60;;;12.00;98.50;;;;;;5022066;28;20215;-73
2021/05/17 00:03:16;;;;;;;5.70;4.75;;;12.00;98.50;;;;;;5012746;28;20212;-73
2021/05/17 00:05:42;;;;;;;5.07;4.63;;;12.00;98.50;;;;;;5015063;28;20223;-74
2021/05/17 00:08:10;;;;;;;4.90;4.47;;;12.00;98.50;;;;;;5023229;28;20192;-74
2021/05/17 00:10:37;;;;;;;7.90;4.70;;;11.90;98.50;;;;;;5022192;28;20188;-74
2021/05/17 00:13:04;;;;;;;6.53;5.57;;;11.90;98.50;;;;;;5018279;28;20217;-74
2021/05/17 00:15:30;;;;;;;5.68;4.70;;;11.90;98.50;;;;;;5011498;28;20262;-74
2021/05/17 00:17:56;;;;;;;5.55;4.45;;;11.90;98.50;;;;;;5012517;28;20181;-72
2021/05/17 00:20:24;;;;;;;5.15;4.70;;;11.80;98.50;;;;;;5025021;28;20176;-72
2021/05/17 00:22:50;;;;;;;6.22;5.60;;;11.80;98.50;;;;;;5009602;28;20672;-71
2021/05/17 00:25:22;;;;;;;6.10;4.97;;;11.80;98.50;;;;;;5020091;28;20212;-73
2021/05/17 00:27:48;;;;;;;9.50;6.03;;;11.80;98.50;;;;;;5021040;28;20196;-74
2021/05/17 00:30:15;;;;;;;8.32;6.07;;;11.70;98.50;;;;;;5018862;28;20646;-74
2021/05/17 00:32:41;;;;;;;9.77;4.80;;;11.70;98.50;;;;;;5024565;28;20561;-74
2021/05/17 00:35:07;;;;;;;5.22;4.80;;;11.70;98.50;;;;;;5022004;28;20646;-74
2021/05/17 00:37:33;;;;;;;5.90;5.40;;;11.70;98.50;;;;;;5018092;28;20189;-72
2021/05/17 00:40:00;;;;;;;6.45;5.22;;;11.60;98.50;;;;;;5016445;28;20648;-73
2021/05/17 00:42:45;;;;;;;5.35;4.90;;;11.60;98.50;;;;;;5009549;28;20243;-72
2021/05/17 00:45:16;;;;;;;6.03;5.40;;;11.60;98.50;;;;;;5020889;28;20212;-74
2021/05/17 00:47:47;;;;;;;5.55;5.03;;;11.50;98.50;;;;;;5025355;28;20180;-73
2021/05/17 00:50:16;;;;;;;4.97;4.55;;;11.50;98.50;;;;;;5027086;28;20619;-72
2021/05/17 00:52:42;;;;;;;4.95;4.53;;;11.50;98.50;;;;;;5023019;28;20188;-72
2021/05/17 00:55:09;;;;;;;4.78;4.05;;;11.50;98.50;;;;;;5024005;28;20231;-72
2021/05/17 00:57:35;;;;;;;6.50;4.80;;;11.50;98.50;;;;;;5019327;28;20188;-72
2021/05/17 01:00:07;;;;;;;4.78;4.47;;;11.50;98.50;;;;;;5016242;28;20180;-73
2021/05/17 01:02:33;;;;;;;4.45;4.05;;;11.50;98.50;;;;;;5024866;28;20279;-73
2021/05/17 01:04:59;;;;;;;2.97;2.85;;;11.50;98.50;;;;;;5024647;28;20254;-72
2021/05/17 01:07:28;;;;;;;2.83;2.63;;;11.50;98.50;;;;;;5017775;28;20181;-73
2021/05/17 01:09:57;;;;;;;3.70;2.88;;;11.50;98.50;;;;;;5009062;28;20185;-73
2021/05/17 01:12:24;;;;;;;3.38;3.17;;;11.50;98.50;;;;;;5020488;28;20200;-74
2021/05/17 01:14:57;;;;;;;3.30;2.97;;;11.50;98.50;;;;;;5014224;28;20187;-72
2021/05/17 01:17:27;;;;;;;3.90;3.63;;;11.50;98.50;;;;;;5013427;28;20391;-72
2021/05/17 01:20:05;;;;;;;2.83;2.70;;;11.50;98.50;;;;;;5022450;28;20713;-72
2021/05/17 01:22:38;;;;;;;4.47;3.53;;;11.50;98.50;;;;;;5022537;28;20212;-73
2021/05/17 01:25:05;;;;;;;3.22;3.08;;;11.50;98.50;;;;;;5025098;28;20212;-74
2021/05/17 01:27:32;;;;;;;3.78;3.58;;;11.50;98.50;;;;;;5017137;28;20173;-73
2021/05/17 01:29:58;;;;;;;3.22;2.92;;;11.50;98.50;;;;;;5020267;28;20200;-74
2021/05/17 01:32:24;;;;;;;3.30;3.10;;;11.50;98.50;;;;;;5020701;28;20193;-74
2021/05/17 01:37:37;;;;;;;3.35;3.05;;;11.40;98.50;;;;;;5023240;28;20287;-74
2021/05/17 01:40:04;;;;;;;3.05;2.85;;;11.40;98.50;;;;;;5030280;28;20198;-74
2021/05/17 01:42:31;;;;;;;2.65;2.60;;;11.50;98.50;;;;;;5029787;28;20184;-73
2021/05/17 01:45:01;;;;;;;3.63;3.35;;;11.50;98.50;;;;;;5015595;28;20323;-74
2021/05/17 01:47:28;;;;;;;3.60;3.28;;;11.50;98.50;;;;;;5027165;28;20551;-74
2021/05/17 01:49:57;;;;;;;3.42;3.22;;;11.50;98.50;;;;;;5027048;28;20572;-73
2021/05/17 01:52:25;;;;;;;3.38;3.08;;;11.50;98.50;;;;;;5018059;28;20180;-74
2021/05/17 01:54:52;;;;;;;3.92;3.20;;;11.60;98.50;;;;;;5018550;28;20287;-73
2021/05/17 01:57:19;;;;;;;4.25;3.78;;;11.60;98.50;;;;;;5022075;28;20613;-74
2021/05/17 01:59:45;;;;;;;3.33;3.03;;;11.60;98.50;;;;;;5028613;28;20208;-74
2021/05/17 02:02:12;;;;;;;5.20;3.67;;;11.60;98.50;;;;;;5011218;28;20224;-74
2021/05/17 02:04:38;;;;;;;6.15;3.30;;;11.60;98.50;;;;;;5017640;28;20240;-72
2021/05/17 02:07:04;;;;;;;4.25;3.90;;;11.60;98.50;;;;;;5021214;28;20275;-72
2021/05/17 02:09:37;;;;;;;4.95;4.50;;;11.70;98.50;;;;;;5014910;28;20187;-72
2021/05/17 02:12:04;;;;;;;3.85;3.53;;;11.70;98.50;;;;;;5020831;28;20204;-72
2021/05/17 02:14:30;;;;;;;3.95;3.58;;;11.70;98.50;;;;;;5021860;28;20192;-72
2021/05/17 02:16:56;;;;;;;3.85;3.55;;;11.70;98.50;;;;;;5016611;28;20267;-74
2021/05/17 02:19:23;;;;;;;4.15;3.67;;;11.70;98.50;;;;;;5025489;28;20259;-73
2021/05/17 02:21:49;;;;;;;9.75;4.25;;;11.70;98.50;;;;;;5025577;28;20189;-73
2021/05/17 02:24:16;;;;;;;4.00;3.50;;;11.70;98.50;;;;;;5017530;28;20697;-73
2021/05/17 02:26:42;;;;;;;3.88;3.58;;;11.70;98.50;;;;;;5021626;28;20206;-72
2021/05/17 02:29:09;;;;;;;4.43;4.03;;;11.70;98.50;;;;;;5023741;28;20242;-72
2021/05/17 02:31:35;;;;;;;4.65;4.10;;;11.70;98.50;;;;;;5023815;28;20180;-74
2021/05/17 02:34:02;;;;;;;4.85;4.40;;;11.70;98.50;;;;;;5019135;28;20250;-72
2021/05/17 02:36:28;;;;;;;3.50;3.30;;;11.70;98.50;;;;;;5029903;28;20187;-72
2021/05/17 02:38:54;;;;;;;5.45;3.95;;;11.70;98.50;;;;;;5019568;28;20635;-72
2021/05/17 02:41:22;;;;;;;3.75;3.50;;;11.70;98.50;;;;;;5022047;28;20195;-72
2021/05/17 02:43:49;;;;;;;4.75;4.35;;;11.70;98.50;;;;;;5019066;28;20212;-72
2021/05/17 02:46:15;;;;;;;4.47;4.03;;;11.70;98.50;;;;;;5028619;28;20220;-72
2021/05/17 02:48:42;;;;;;;4.95;3.47;;;11.70;98.50;;;;;;5029030;28;20623;-72
2021/05/17 02:51:10;;;;;;;3.85;3.50;;;11.70;98.50;;;;;;5015365;28;20185;-72
2021/05/17 02:53:38;;;;;;;3.58;3.40;;;11.60;98.50;;;;;;5016748;28;20204;-73
2021/05/17 02:56:10;;;;;;;4.30;3.72;;;11.60;98.50;;;;;;5026678;28;20207;-74
2021/05/17 02:58:39;;;;;;;4.13;3.72;;;11.60;98.50;;;;;;5018416;28;20188;-74
2021/05/17 03:01:10;;;;;;;4.85;3.65;;;11.60;98.50;;;;;;5026339;28;20575;-73
2021/05/17 03:03:48;;;;;;;3.67;3.47;;;11.60;98.50;;;;;;5022490;28;20549;-73
2021/05/17 03:06:34;;;;;;;4.15;3.13;;;11.60;98.50;;;;;;5023861;28;20234;-74
2021/05/17 03:09:05;;;;;;;3.65;3.42;;;11.60;98.50;;;;;;5023496;28;20271;-73
2021/05/17 03:11:34;;;;;;;4.13;3.83;;;11.60;98.50;;;;;;5022953;28;20207;-74
2021/05/17 03:14:02;;;;;;;3.95;3.65;;;11.60;98.50;;;;;;5014854;28;20724;-73
2021/05/17 03:16:29;;;;;;;3.97;3.67;;;11.60;98.50;;;;;;5018376;28;20180;-74
2021/05/17 03:18:56;;;;;;;5.20;3.83;;;11.70;98.50;;;;;;5024624;28;20191;-73
2021/05/17 03:21:24;;;;;;;5.00;3.47;;;11.70;98.50;;;;;;5015939;28;20665;-71
2021/05/17 03:23:51;;;;;;;4.20;3.85;;;11.70;98.50;;;;;;5009759;28;20180;-70
2021/05/17 03:26:22;;;;;;;4.22;3.97;;;11.70;98.50;;;;;;5018248;28;20220;-72
2021/05/17 03:28:49;;;;;;;3.97;3.55;;;11.70;98.50;;;;;;5012607;28;20176;-73
2021/05/17 03:31:15;;;;;;;4.50;4.10;;;11.70;98.50;;;;;;5020185;28;20189;-73
2021/05/17 03:33:41;;;;;;;4.65;3.88;;;11.70;98.50;;;;;;5022693;28;20655;-74
2021/05/17 03:36:07;;;;;;;3.83;3.45;;;11.70;98.50;;;;;;5027831;28;20195;-73
2021/05/17 03:38:33;;;;;;;3.10;2.88;;;11.70;98.50;;;;;;5023168;28;20192;-73
2021/05/17 03:40:59;;;;;;;3.78;3.42;;;11.80;98.50;;;;;;5020139;28;20196;-73
2021/05/17 03:43:25;;;;;;;4.30;3.83;;;11.70;98.50;;;;;;5027296;28;20188;-73
2021/05/17 03:45:51;;;;;;;4.05;3.67;;;11.80;98.50;;;;;;5024071;28;20216;-73
2021/05/17 03:48:17;;;;;;;4.50;3.53;;;11.70;98.50;;;;;;5026600;28;20177;-72
2021/05/17 03:50:42;;;;;;;5.03;4.53;;;11.80;98.50;;;;;;5019333;28;20203;-73
2021/05/17 03:53:08;;;;;;;5.88;4.78;;;11.80;98.50;;;;;;5027028;28;20184;-73
2021/05/17 03:55:34;;;;;;;8.02;4.65;;;11.70;98.50;;;;;;5021874;28;21985;-72
2021/05/17 03:58:00;;;;;;;6.53;4.65;;;11.70;98.50;;;;;;5022764;28;20180;-72
2021/05/17 04:00:28;;;;;;;15.40;4.95;;;11.70;98.50;;;;;;5021880;28;20254;-72
2021/05/17 04:02:54;;;;;;;5.35;4.75;;;11.70;98.50;;;;;;5018531;28;20192;-73
2021/05/17 04:05:35;;;;;;;4.53;4.15;;;11.70;98.50;;;;;;5020371;28;20216;-74
2021/05/17 04:13:25;;;;;;;4.30;3.88;;;11.70;98.50;;;;;;5024259;28;20202;-73
2021/05/17 04:15:53;;;;;;;4.70;4.35;;;11.70;98.50;;;;;;5022191;28;20219;-73
2021/05/17 04:18:20;;;;;;;4.85;4.38;;;11.70;98.50;;;;;;5011197;28;20214;-73
2021/05/17 04:20:47;;;;;;;4.13;3.72;;;11.70;98.50;;;;;;5020847;28;20184;-73
2021/05/17 04:23:13;;;;;;;4.03;3.63;;;11.80;98.50;;;;;;5021118;28;20177;-74
2021/05/17 04:25:39;;;;;;;3.55;3.25;;;11.80;98.50;;;;;;5011518;28;20739;-73
2021/05/17 04:28:05;;;;;;;6.22;5.05;;;11.80;98.50;;;;;;5010716;28;20602;-72
2021/05/17 04:30:32;;;;;;;5.60;4.55;;;11.90;98.50;;;;;;5020060;28;20188;-73
2021/05/17 04:33:01;;;;;;;3.92;3.55;;;11.90;98.50;;;;;;5020311;28;20184;-69
2021/05/17 04:35:26;;;;;;;4.60;4.18;;;12.00;98.50;;;;;;5017278;28;20193;-69
2021/05/17 04:37:52;;;;;;;4.50;4.07;;;12.00;98.50;;;;;;5020283;28;20227;-70
2021/05/17 04:40:18;;;;;;;4.35;4.00;;;12.00;98.50;;;;;;5026531;28;20237;-70
2021/05/17 04:42:44;;;;;;;4.28;3.92;;;12.00;98.50;;;;;;5020246;28;20189;-70
2021/05/17 04:45:10;;;;;;;4.13;3.75;;;12.00;98.50;;;;;;5009444;28;20221;-70
2021/05/17 04:47:36;;;;;;;4.65;3.90;;;12.00;98.50;;;;;;5025477;28;20184;-69
2021/05/17 04:50:04;;;;;;;5.18;4.72;;;12.10;98.50;;;;;;5022056;28;20676;-72
2021/05/17 04:52:30;;;;;;;3.95;3.75;;;12.10;98.50;;;;;;5010061;28;20181;-69
2021/05/17 04:54:55;;;;;;;5.28;4.82;;;12.10;98.50;;;;;;5027988;28;20188;-73
2021/05/17 04:57:22;;;;;;;5.85;4.03;;;12.20;98.50;;;;;;5021764;28;20626;-69
2021/05/17 04:59:47;;;;;;;4.68;4.28;;;12.30;98.50;;;;;;5020911;28;20669;-67
2021/05/17 05:02:13;;;;;;;5.55;4.53;;;12.40;98.50;;;;;;5014466;28;20188;-71
2021/05/17 05:04:39;;;;;;;5.38;4.32;;;12.40;98.50;;;;;;5027596;28;20612;-71
2021/05/17 05:07:06;;;;;;;4.88;4.47;;;12.60;98.50;;;;;;5026184;28;20582;-71
2021/05/17 05:09:32;;;;;;;6.13;5.03;;;12.70;98.50;;;;;;5015104;28;20172;-71
2021/05/17 05:11:58;;;;;;;5.57;4.80;;;12.90;98.50;;;;;;5028366;28;20196;-72
2021/05/17 05:14:23;;;;;;;5.43;4.72;;;13.00;98.50;;;;;;5029207;28;20188;-70
2021/05/17 05:16:49;;;;;;;7.20;6.03;;;13.10;98.50;;;;;;5028456;28;20217;-71
2021/05/17 05:19:15;;;;;;;6.75;6.10;;;13.30;98.50;;;;;;5018821;28;20568;-70
2021/05/17 05:21:40;;;;;;;9.70;6.15;;;13.40;98.50;;;;;;5016940;28;20827;-69
2021/05/17 05:24:07;;;;;;;6.90;5.88;;;13.50;98.50;;;;;;5020506;28;20185;-70
2021/05/17 05:29:28;;;;;;;7.00;5.80;;;13.70;98.50;;;;;;5023988;28;20688;-70
2021/05/17 05:31:59;;;;;;;7.95;6.13;;;13.70;98.50;;;;;;5015138;28;20203;-74
2021/05/17 05:34:26;;;;;;;10.90;7.43;;;13.80;98.50;;;;;;5022726;28;20947;-69
2021/05/17 05:36:53;;;;;;;9.60;6.75;;;13.80;98.50;;;;;;5028362;28;20831;-68
2021/05/17 05:39:18;;;;;;;11.57;7.25;;;13.80;98.20;;;;;;5028501;28;20176;-68
2021/05/17 05:41:44;;;;;;;10.00;7.55;;;13.90;98.30;;;;;;5028767;28;20188;-68
2021/05/17 05:44:10;;;;;;;10.10;6.80;;;13.90;98.00;;;;;;5030575;28;20234;-68
2021/05/17 05:46:36;;;;;;;10.05;7.32;;;13.90;98.00;;;;;;5030304;28;20701;-68
2021/05/17 05:49:02;;;;;;;8.82;6.80;;;14.00;97.90;;;;;;5030458;28;20183;-69
2021/05/17 05:51:29;;;;;;;8.95;6.47;;;14.00;98.00;;;;;;5030138;28;20916;-69
2021/05/17 05:53:58;;;;;;;9.48;7.03;;;14.00;98.30;;;;;;5030349;28;20177;-69
2021/05/17 05:56:25;;;;;;;10.43;7.78;;;14.10;98.30;;;;;;5032536;28;20206;-69
2021/05/17 05:58:51;;;;;;;14.43;8.23;;;14.20;98.30;;;;;;5017656;28;20547;-69
2021/05/17 06:01:17;;;;;;;10.70;8.30;;;14.30;98.20;;;;;;5030740;28;20262;-69
2021/05/17 06:03:43;;;;;;;11.10;7.85;;;14.40;98.10;;;;;;5030057;28;20221;-69
2021/05/17 06:06:09;;;;;;;14.07;8.05;;;14.50;97.60;;;;;;5029793;28;20219;-68
2021/05/17 06:08:37;;;;;;;18.17;8.50;;;14.60;96.80;;;;;;5023815;28;20184;-71
2021/05/17 06:11:04;;;;;;;11.95;8.65;;;14.70;96.50;;;;;;5026963;28;21125;-69
2021/05/17 06:13:32;;;;;;;11.85;7.95;;;14.70;96.50;;;;;;5024105;28;20194;-67
2021/05/17 06:15:57;;;;;;;15.30;9.13;;;14.80;96.60;;;;;;5028467;28;20191;-68
2021/05/17 06:18:24;;;;;;;11.30;8.50;;;14.80;96.20;;;;;;5025829;28;20189;-69
2021/05/17 06:20:50;;;;;;;17.38;7.65;;;14.80;96.30;;;;;;5028909;28;20172;-69
2021/05/17 06:23:17;;;;;;;11.27;7.70;;;14.70;96.50;;;;;;5029348;28;20173;-69
2021/05/17 06:25:44;;;;;;;16.08;9.18;;;14.80;96.50;;;;;;5025826;28;21020;-68
2021/05/17 06:28:11;;;;;;;11.75;7.93;;;14.70;96.40;;;;;;5028570;28;20682;-69
2021/05/17 06:30:46;;;;;;;15.25;9.20;;;14.70;96.20;;;;;;5015495;28;20180;-68
2021/05/17 06:33:14;;;;;;;16.45;8.73;;;14.70;96.40;;;;;;5015898;28;21894;-68
2021/05/17 06:35:45;;;;;;;14.98;8.80;;;14.70;96.50;;;;;;5027123;28;20192;-68
2021/05/17 06:38:16;;;;;;;17.92;8.95;;;14.80;96.50;;;;;;5028054;28;20187;-68
2021/05/17 06:40:43;;;;;;;14.82;9.68;;;14.90;96.30;;;;;;5023716;28;20565;-68
2021/05/17 06:43:09;;;;;;;17.73;10.07;;;15.10;95.60;;;;;;5021626;28;20192;-68
2021/05/17 06:45:35;;;;;;;15.45;9.80;;;15.30;95.60;;;;;;5024472;28;20326;-69
2021/05/17 06:48:01;;;;;;;14.32;9.00;;;15.50;95.50;;;;;;5026639;28;20180;-68
2021/05/17 06:50:28;;;;;;;12.23;8.60;;;15.60;95.50;;;;;;5030170;28;20226;-68
2021/05/17 06:52:54;;;;;;;12.35;9.15;;;15.80;94.50;;;;;;5024781;28;20254;-68
2021/05/17 06:55:22;;;;;;;13.85;8.85;;;15.90;93.70;;;;;;5016610;28;20812;-68
2021/05/17 07:00:28;;;;;;;9.68;7.93;;;16.00;92.10;;;;;;5022414;28;20889;-68
2021/05/17 07:02:56;;;;;;;9.80;8.48;;;16.00;91.80;;;;;;5028291;28;20175;-68
2021/05/17 07:05:22;;;;;;;12.45;8.25;;;15.90;91.20;;;;;;5028879;28;20696;-68
2021/05/17 07:13:15;;;;;;;7.35;6.72;;;15.90;93.00;;;;;;5028750;28;20926;-69
2021/05/17 07:15:41;;;;;;;9.48;7.53;;;16.00;92.90;;;;;;5028753;28;20188;-68
2021/05/17 07:18:08;;;;;;;9.48;7.38;;;16.10;92.60;;;;;;5019372;28;20208;-68
2021/05/17 07:25:58;;;;;;;10.18;7.18;;;16.40;92.60;;;;;;5010819;28;20226;-69
2021/05/17 07:28:24;;;;;;;8.82;7.45;;;16.60;91.90;;;;;;5007314;28;20637;-69
2021/05/17 07:30:51;;;;;;;9.40;7.25;;;16.80;91.10;;;;;;5014973;28;20195;-69
2021/05/17 07:33:17;;;;;;;8.07;6.22;;;17.00;90.40;;;;;;5021770;28;20185;-69
2021/05/17 07:35:43;;;;;;;9.40;7.00;;;17.30;90.00;;;;;;5027242;28;20658;-69
2021/05/17 07:38:09;;;;;;;12.65;8.57;;;17.50;89.70;;;;;;5018951;28;20325;-69
2021/05/17 07:40:35;;;;;;;16.02;11.25;;;17.80;89.30;;;;;;5023589;28;20677;-69
2021/05/17 07:43:01;;;;;;;15.27;11.90;;;17.90;89.30;;;;;;5025636;28;20584;-69
2021/05/17 07:45:27;;;;;;;14.75;11.00;;;18.00;88.90;;;;;;5026516;28;20242;-69
2021/05/17 07:47:53;;;;;;;14.70;11.52;;;18.20;88.70;;;;;;5022965;28;20189;-69
2021/05/17 07:50:19;;;;;;;15.40;10.60;;;18.20;88.10;;;;;;5018691;28;20184;-69
2021/05/17 07:52:45;;;;;;;18.45;12.10;;;18.30;87.40;;;;;;5027132;28;20250;-69
2021/05/17 07:55:12;;;;;;;19.38;13.02;;;18.30;87.50;;;;;;5027085;28;20637;-69
2021/05/17 07:57:40;;;;;;;17.92;11.63;;;18.30;86.60;;;;;;5024875;28;20190;-69
2021/05/17 08:00:08;;;;;;;15.60;11.68;;;18.40;87.10;;;;;;5027020;28;20246;-69
2021/05/17 08:02:34;;;;;;;15.15;11.35;;;18.40;86.90;;;;;;5014956;28;20940;-69
2021/05/17 08:05:00;;;;;;;18.40;10.15;;;18.50;86.70;;;;;;5026306;28;20207;-69
2021/05/17 08:07:25;;;;;;;10.77;9.05;;;18.50;86.70;;;;;;5026349;28;20172;-69
2021/05/17 08:09:52;;;;;;;14.77;9.52;;;18.50;85.60;;;;;;5026941;28;20168;-69
2021/05/17 08:12:18;;;;;;;16.10;9.57;;;18.60;85.90;;;;;;5021224;28;20188;-69
2021/05/17 08:14:44;;;;;;;12.48;9.15;;;18.60;86.00;;;;;;5022595;28;20185;-69
2021/05/17 08:17:10;;;;;;;10.20;8.98;;;18.70;86.30;;;;;;5026289;28;20653;-69
2021/05/17 08:19:37;;;;;;;13.73;9.57;;;18.80;85.70;;;;;;5019304;28;20269;-68
2021/05/17 08:22:04;;;;;;;10.88;9.00;;;18.90;85.90;;;;;;5025485;28;20199;-69
2021/05/17 08:24:30;;;;;;;11.05;8.73;;;19.00;85.30;;;;;;5026416;28;20212;-68
2021/05/17 08:26:56;;;;;;;10.00;7.75;;;19.00;85.00;;;;;;5021012;28;20185;-68
2021/05/17 08:29:23;;;;;;;11.70;8.65;;;19.00;84.90;;;;;;5010394;28;20243;-68
2021/05/17 08:31:50;;;;;;;8.85;7.40;;;19.00;85.30;;;;;;5026137;28;20621;-69
2021/05/17 08:34:17;;;;;;;13.48;8.27;;;19.00;84.80;;;;;;5015932;28;20207;-68
2021/05/17 08:36:43;;;;;;;8.30;7.22;;;18.90;84.70;;;;;;5013040;28;20185;-68
2021/05/17 08:39:10;;;;;;;11.35;6.68;;;18.80;85.20;;;;;;5021488;28;20189;-68
2021/05/17 08:41:36;;;;;;;7.75;6.70;;;18.80;84.40;;;;;;5017889;28;20180;-68
2021/05/17 08:44:03;;;;;;;6.93;6.28;;;18.80;84.80;;;;;;5021214;28;20519;-69
2021/05/17 08:46:29;;;;;;;8.57;6.60;;;18.80;85.40;;;;;;5018329;28;20270;-69
2021/05/17 08:48:55;;;;;;;9.57;6.18;;;18.80;86.00;;;;;;5024689;28;20192;-69
2021/05/17 08:51:27;;;;;;;6.72;6.13;;;18.80;85.70;;;;;;5009408;28;20176;-68
2021/05/17 08:53:54;;;;;;;7.28;6.38;;;18.80;85.30;;;;;;5026210;28;20295;-68
2021/05/17 08:56:21;;;;;;;7.30;6.30;;;18.80;85.60;;;;;;5026825;28;20668;-68
2021/05/17 08:58:48;;;;;;;7.78;5.93;;;18.90;86.00;;;;;;5026116;28;20180;-69
2021/05/17 09:01:14;;;;;;;7.43;6.13;;;19.00;85.70;;;;;;5026230;28;20649;-69
2021/05/17 09:03:39;;;;;;;5.82;5.20;;;19.00;85.10;;;;;;5013615;28;20195;-68
2021/05/17 09:06:07;;;;;;;7.88;6.18;;;19.10;86.10;;;;;;5024763;28;20224;-69
2021/05/17 09:08:40;;;;;;;10.93;7.10;;;19.30;86.30;;;;;;5025079;28;20661;-69
2021/05/17 09:11:06;;;;;;;12.02;5.97;;;19.50;85.90;;;;;;5026532;28;20681;-67
2021/05/17 09:13:32;;;;;;;6.63;6.05;;;19.60;85.90;;;;;;5025971;28;20283;-69
2021/05/17 09:15:58;;;;;;;8.63;6.95;;;19.70;85.40;;;;;;5024962;28;20188;-69
2021/05/17 09:18:30;;;;;;;7.85;6.43;;;19.60;84.60;;;;;;5025323;28;20265;-69
2021/05/17 09:20:58;;;;;;;8.68;7.30;;;19.40;85.20;;;;;;5026092;28;20227;-68
2021/05/17 09:23:34;;;;;;;8.68;6.82;;;19.20;85.80;;;;;;5026587;28;20728;-69
2021/05/17 09:26:14;;;;;;;8.68;6.97;;;19.10;86.80;;;;;;5025377;28;20207;-69
2021/05/17 09:28:45;;;;;;;6.63;5.97;;;19.00;86.90;;;;;;5019873;28;20192;-69
2021/05/17 09:31:14;;;;;;;6.85;6.25;;;19.00;87.50;;;;;;5013806;28;20673;-69
2021/05/17 09:33:49;;;;;;;6.90;6.10;;;19.10;87.40;;;;;;5021188;28;20566;-69
2021/05/17 09:36:39;;;;;;;7.30;5.15;;;19.20;85.00;;;;;;5025835;28;20938;-69
2021/05/17 09:39:17;;;;;;;8.07;5.10;;;19.20;84.80;;;;;;5021215;28;20292;-69
2021/05/17 09:41:55;;;;;;;4.75;3.70;;;19.40;85.60;;;;;;5030361;28;20267;-69
2021/05/17 09:44:28;;;;;;;6.07;3.80;;;19.50;85.00;;;;;;5030140;28;20696;-69
2021/05/17 09:47:02;;;;;;;1.83;1.83;;;19.60;85.20;;;;;;5029344;28;20188;-69
2021/05/17 09:49:51;;;;;;;2.28;2.00;;;19.60;82.60;;;;;;5028173;28;20188;-69
2021/05/17 09:52:28;;;;;;;1.95;1.13;;;19.70;83.90;;;;;;5028522;28;20212;-69
2021/05/17 09:55:03;;;;;;;1.20;0.80;;;19.70;83.00;;;;;;5029328;28;20188;-70
2021/05/17 09:57:31;;;;;;;0.82;0.82;;;20.00;83.40;;;;;;5026994;28;20202;-69
2021/05/17 10:00:04;;;;;;;1.00;0.90;;;20.30;82.80;;;;;;5028117;28;20186;-70
2021/05/17 10:02:41;;;;;;;1.85;0.88;;;20.70;82.90;;;;;;5013145;28;20661;-69
2021/05/17 10:05:25;;;;;;;0.80;0.80;;;21.20;81.20;;;;;;5022828;28;20521;-69
2021/05/17 10:07:57;;;;;;;1.90;0.50;;;21.40;78.90;;;;;;5016825;28;20215;-69
2021/05/17 10:10:24;;;;;;;0.70;0.70;;;21.50;77.30;;;;;;5027051;28;20801;-69
2021/05/17 10:12:54;;;;;;;0.50;0.50;;;21.50;77.70;;;;;;5020474;28;20192;-69
2021/05/17 10:15:21;;;;;;;1.85;0.70;;;21.40;78.00;;;;;;5026385;28;20196;-69
2021/05/17 10:17:47;;;;;;;0.90;0.75;;;21.30;77.90;;;;;;5019754;28;20658;-70
2021/05/17 10:20:17;;;;;;;0.75;0.75;;;21.20;77.30;;;;;;5026910;28;20207;-69
2021/05/17 10:22:44;;;;;;;1.02;0.90;;;20.90;78.20;;;;;;5025681;28;20188;-68
2021/05/17 10:25:13;;;;;;;0.73;0.70;;;20.60;80.10;;;;;;5029330;28;20655;-67
2021/05/17 10:27:50;;;;;;;0.88;0.88;;;20.10;81.40;;;;;;5026900;28;20180;-68
2021/05/17 10:30:33;;;;;;;1.85;1.75;;;19.90;82.10;;;;;;5030342;28;20184;-69
2021/05/17 10:33:01;;;;;;;3.85;3.55;;;19.80;82.10;;;;;;5021390;28;20299;-69
2021/05/17 10:35:29;;;;;;;4.35;4.00;;;19.50;83.30;;;;;;5020594;28;20673;-68
2021/05/17 10:39:03;;;;;;;5.45;4.93;;;19.30;84.50;;;;;;5023360;28;20264;-68
2021/05/17 10:41:49;;;;;;;7.15;4.57;;;19.00;85.40;;;;;;5019301;28;20649;-68
2021/05/17 10:46:50;;;;;;;4.57;4.18;;;18.60;86.30;;;;;;5029595;28;20200;-68
2021/05/17 10:49:29;;;;;;;4.10;3.72;;;18.60;86.20;;;;;;5034639;28;20216;-68
2021/05/17 10:52:03;;;;;;;3.60;3.30;;;18.50;86.20;;;;;;5034617;28;20179;-68
2021/05/17 10:54:32;;;;;;;4.30;4.00;;;18.40;86.80;;;;;;5037099;28;20190;-68
2021/05/17 10:57:05;;;;;;;3.70;3.50;;;18.30;86.20;;;;;;5036857;28;20180;-68
2021/05/17 11:02:34;;;;;;;4.43;3.35;;;18.10;86.60;;;;;;5036680;28;20277;-68
2021/05/17 11:05:14;;;;;;;3.92;3.72;;;18.10;87.00;;;;;;5035974;28;20219;-68
2021/05/17 11:08:01;;;;;;;3.65;3.20;;;18.10;87.80;;;;;;5036988;28;20580;-69
2021/05/17 11:10:50;;;;;;;4.18;3.78;;;18.10;88.00;;;;;;5034684;28;20187;-68
2021/05/17 11:13:21;;;;;;;3.22;3.03;;;18.20;88.00;;;;;;5032972;28;20203;-68
2021/05/17 11:15:47;;;;;;;4.03;3.15;;;18.20;88.20;;;;;;5037669;28;20192;-68
2021/05/17 11:18:13;;;;;;;6.35;3.40;;;18.30;87.30;;;;;;5037462;28;20686;-68
2021/05/17 11:20:45;;;;;;;4.20;3.95;;;18.30;87.50;;;;;;5037468;28;20237;-68
2021/05/17 11:23:14;;;;;;;3.63;3.33;;;18.30;87.80;;;;;;5036141;28;20175;-68
2021/05/17 11:25:52;;;;;;;3.38;3.00;;;18.30;87.60;;;;;;5029760;28;20764;-68
2021/05/17 11:28:39;;;;;;;4.53;3.90;;;18.30;87.60;;;;;;5020287;28;20712;-68
2021/05/17 11:31:37;;;;;;;3.08;2.85;;;18.30;87.80;;;;;;5025631;28;20180;-68
2021/05/17 11:34:06;;;;;;;4.43;3.20;;;18.40;87.30;;;;;;5000980;28;20239;-68
2021/05/17 11:37:08;;;;;;;3.58;3.38;;;18.30;87.80;;;;;;5004853;28;20781;-67
2021/05/17 11:39:34;;;;;;;4.90;2.58;;;18.30;87.90;;;;;;5001239;28;20204;-68
2021/05/17 11:42:01;;;;;;;2.25;2.13;;;18.30;88.10;;;;;;4992494;28;20567;-68
2021/05/17 11:44:43;;;;;;;2.65;1.55;;;18.30;86.90;;;;;;5000448;28;20200;-69
2021/05/17 11:47:11;;;;;;;2.83;1.83;;;18.20;87.10;;;;;;5004393;28;20189;-69
2021/05/17 11:49:39;;;;;;;1.50;1.48;;;18.20;87.00;;;;;;5001968;28;20185;-69
2021/05/17 11:52:10;;;;;;;2.53;1.63;;;18.10;87.10;;;;;;5004757;28;20208;-69
2021/05/17 11:54:39;;;;;;;2.88;1.30;;;18.00;87.50;;;;;;5004264;28;20181;-67
2021/05/17 11:57:06;;;;;;;1.55;1.45;;;18.00;87.20;;;;;;5002063;28;20312;-67
2021/05/17 11:59:33;;;;;;;1.35;1.35;;;17.90;87.80;;;;;;5004086;28;20181;-70
2021/05/17 12:02:03;;;;;;;1.30;1.20;;;17.90;88.70;;;;;;5003586;28;20197;-68
2021/05/17 12:04:36;;;;;;;1.40;1.40;;;17.90;89.40;;;;;;5000874;28;20228;-68
2021/05/17 12:07:03;;;;;;;1.67;1.48;;;18.10;89.50;;;;;;5008047;28;20255;-69
2021/05/17 12:09:32;;;;;;;1.70;1.60;;;18.20;89.70;;;;;;5001278;28;20214;-68
2021/05/17 12:12:01;;;;;;;4.15;1.70;;;18.40;89.50;;;;;;5022181;28;20219;-68
2021/05/17 12:14:29;;;;;;;1.55;1.45;;;18.60;89.70;;;;;;5018788;28;20184;-68
2021/05/17 12:17:19;;;;;;;1.40;1.30;;;18.80;88.70;;;;;;5024653;28;20649;-68
2021/05/17 12:19:47;;;;;;;1.73;1.63;;;18.90;88.60;;;;;;5019407;28;20683;-68
2021/05/17 12:22:32;;;;;;;1.48;1.48;;;19.00;88.70;;;;;;5022893;28;20196;-67
2021/05/17 12:25:00;;;;;;;1.15;1.15;;;19.10;87.70;;;;;;5005775;28;20247;-67
2021/05/17 12:27:29;;;;;;;2.80;1.38;;;19.20;86.90;;;;;;5008182;28;20202;-68
2021/05/17 12:29:57;;;;;;;1.13;1.02;;;19.30;86.70;;;;;;5022914;28;20181;-68
2021/05/17 12:32:44;;;;;;;1.42;1.40;;;19.40;86.20;;;;;;5021195;28;20192;-68
2021/05/17 12:35:12;;;;;;;1.42;1.30;;;19.50;85.80;;;;;;5023676;28;20192;-67
2021/05/17 12:37:41;;;;;;;2.08;1.27;;;19.60;85.90;;;;;;5018650;28;20586;-67
2021/05/17 12:40:28;;;;;;;1.23;1.08;;;19.70;84.80;;;;;;5011213;28;20180;-68
2021/05/17 12:43:19;;;;;;;1.27;1.00;;;19.80;84.50;;;;;;5012520;28;20203;-68
2021/05/17 12:45:47;;;;;;;1.10;1.10;;;19.90;84.40;;;;;;4964999;28;20229;-67
2021/05/17 12:48:18;;;;;;;1.00;1.00;;;19.80;84.70;;;;;;4965895;28;20198;-67
2021/05/17 12:50:46;;;;;;;1.20;1.10;;;19.80;85.10;;;;;;4957826;28;20200;-67
2021/05/17 12:53:17;;;;;;;1.13;0.90;;;19.80;84.90;;;;;;4964497;28;20194;-69
2021/05/17 12:55:46;;;;;;;3.72;1.08;;;19.80;84.60;;;;;;4969170;28;20205;-67
2021/05/17 12:58:31;;;;;;;3.05;1.00;;;19.70;84.40;;;;;;4973535;28;20703;-68
2021/05/17 13:00:58;;;;;;;1.10;1.10;;;19.70;84.30;;;;;;4973953;28;20332;-68
2021/05/17 13:03:26;;;;;;;1.05;1.05;;;19.60;84.50;;;;;;4974827;28;20281;-68
2021/05/17 13:06:02;;;;;;;1.38;1.27;;;19.50;84.80;;;;;;4968123;28;20221;-68
2021/05/17 13:08:50;;;;;;;0.90;0.90;;;19.40;84.50;;;;;;4972061;28;20192;-68
2021/05/17 13:11:28;;;;;;;1.17;1.17;;;19.20;84.70;;;;;;4967060;28;20663;-68
2021/05/17 13:13:58;;;;;;;0.82;0.82;;;19.10;85.30;;;;;;4962360;28;20197;-68
2021/05/17 13:16:28;;;;;;;1.55;1.00;;;18.90;86.00;;;;;;4965408;28;20225;-68
2021/05/17 13:30:11;;;;;;;2.35;0.93;;;18.80;88.80;;;;;;5028251;28;20719;-69
2021/05/17 13:32:41;;;;;;;1.15;0.75;;;18.80;89.40;;;;;;5032424;28;20680;-69
2021/05/17 13:35:09;;;;;;;0.82;0.82;;;18.90;89.20;;;;;;5030007;28;20180;-68
2021/05/17 13:37:36;;;;;;;2.03;1.30;;;18.90;88.70;;;;;;5030221;28;20187;-68